createdAt,value
2018-11-26T00:01:23.519Z,37.50
2018-11-26T00:03:51.475Z,38.50
2018-11-26T00:06:19.450Z,37.53
2018-11-26T00:08:47.414Z,38.40
2018-11-26T00:11:49.318Z,36.80
2018-11-26T00:14:17.339Z,37.57
2018-11-26T00:16:45.267Z,38.13
2018-11-26T00:19:13.214Z,36.23
2018-11-26T00:21:41.161Z,36.70
2018-11-26T00:24:09.148Z,34.90
2018-11-26T00:26:37.104Z,35.47
2018-11-26T00:29:05.052Z,34.50
2018-11-26T00:31:32.968Z,39.03
2018-11-26T00:34:00.928Z,41.00
2018-11-26T00:36:28.913Z,40.73
2018-11-26T00:38:56.831Z,37.77
2018-11-26T00:41:24.872Z,39.07
2018-11-26T00:43:52.827Z,39.87
2018-11-26T00:46:20.842Z,39.63
2018-11-26T00:48:48.718Z,40.17
2018-11-26T00:51:16.733Z,38.90
2018-11-26T00:53:44.664Z,39.47
2018-11-26T00:56:12.621Z,42.67
2018-11-26T00:58:40.671Z,42.37
2018-11-26T01:01:08.618Z,36.60
2018-11-26T01:03:36.551Z,36.70
2018-11-26T01:06:04.923Z,39.10
2018-11-26T01:08:33.376Z,39.53
2018-11-26T01:11:01.325Z,35.67
2018-11-26T01:13:29.280Z,35.60
2018-11-26T01:15:57.223Z,34.67
2018-11-26T01:18:25.169Z,36.13
2018-11-26T01:20:53.119Z,38.73
2018-11-26T01:23:21.060Z,34.50
2018-11-26T01:25:49.007Z,38.43
2018-11-26T01:28:16.960Z,38.67
2018-11-26T01:30:44.931Z,37.53
2018-11-26T01:33:12.897Z,40.63
2018-11-26T01:35:40.849Z,36.33
2018-11-26T01:38:08.772Z,37.27
2018-11-26T01:40:42.193Z,35.00
2018-11-26T01:43:10.163Z,41.43
2018-11-26T01:45:38.139Z,36.67
2018-11-26T01:48:06.076Z,35.40
2018-11-26T01:50:34.035Z,35.70
2018-11-26T01:53:01.993Z,38.20
2018-11-26T01:55:29.933Z,32.73
2018-11-26T01:57:57.939Z,35.77
2018-11-26T02:00:26.813Z,33.40
2018-11-26T02:02:54.885Z,34.13
2018-11-26T02:05:22.902Z,33.10
2018-11-26T02:07:50.840Z,35.67
2018-11-26T02:10:19.509Z,29.73
2018-11-26T02:12:47.520Z,35.97
2018-11-26T02:15:25.465Z,33.93
2018-11-26T02:17:57.184Z,32.53
2018-11-26T02:20:25.116Z,40.33
2018-11-26T02:22:53.052Z,34.80
2018-11-26T02:25:21.017Z,33.20
2018-11-26T02:27:48.964Z,34.03
2018-11-26T02:30:16.928Z,34.20
2018-11-26T02:32:48.680Z,32.47
2018-11-26T02:35:16.603Z,31.63
2018-11-26T02:37:48.399Z,30.90
2018-11-26T02:40:21.356Z,31.60
2018-11-26T02:42:49.420Z,26.30
2018-11-26T02:45:17.343Z,34.63
2018-11-26T02:47:45.278Z,29.97
2018-11-26T02:50:13.231Z,30.23
2018-11-26T02:52:41.159Z,28.50
2018-11-26T02:55:09.168Z,29.27
2018-11-26T02:57:37.120Z,29.87
2018-11-26T03:00:07.256Z,26.03
2018-11-26T03:02:35.187Z,26.57
2018-11-26T03:05:03.141Z,26.30
2018-11-26T03:07:31.131Z,26.03
2018-11-26T03:09:59.141Z,28.73
2018-11-26T03:12:27.057Z,27.30
2018-11-26T03:14:55.053Z,25.30
2018-11-26T03:17:23.037Z,26.00
2018-11-26T03:19:50.968Z,26.70
2018-11-26T03:22:19.007Z,29.63
2018-11-26T03:24:46.980Z,29.43
2018-11-26T03:27:14.917Z,30.43
2018-11-26T03:29:42.871Z,32.33
2018-11-26T03:32:10.805Z,26.20
2018-11-26T03:34:38.739Z,29.40
2018-11-26T03:37:07.071Z,29.50
2018-11-26T03:39:35.036Z,29.03
2018-11-26T03:42:02.979Z,28.13
2018-11-26T03:44:30.975Z,29.47
2018-11-26T03:46:58.969Z,27.47
2018-11-26T03:49:27.188Z,29.33
2018-11-26T03:51:55.117Z,28.00
2018-11-26T03:54:23.076Z,26.03
2018-11-26T03:56:51.033Z,27.23
2018-11-26T03:59:18.997Z,30.07
2018-11-26T04:01:46.947Z,32.73
2018-11-26T04:04:14.911Z,32.37
2018-11-26T04:06:42.850Z,32.10
2018-11-26T04:09:10.817Z,25.97
2018-11-26T04:11:39.048Z,29.37
2018-11-26T04:14:07.021Z,30.70
2018-11-26T04:16:35.013Z,29.93
2018-11-26T04:19:02.954Z,29.53
2018-11-26T04:21:30.903Z,26.50
2018-11-26T04:23:58.859Z,29.30
2018-11-26T04:26:26.944Z,30.53
2018-11-26T04:28:54.907Z,30.80
2018-11-26T04:31:22.914Z,29.77
2018-11-26T04:33:50.864Z,28.63
2018-11-26T04:36:18.828Z,28.13
2018-11-26T04:41:21.196Z,29.40
2018-11-26T04:43:49.178Z,29.63
2018-11-26T04:46:17.160Z,29.87
2018-11-26T04:48:45.087Z,27.17
2018-11-26T04:51:13.048Z,27.67
2018-11-26T04:53:40.985Z,26.30
2018-11-26T04:56:08.980Z,29.23
2018-11-26T04:58:36.985Z,29.77
2018-11-26T05:01:05.228Z,28.10
2018-11-26T05:03:33.151Z,27.47
2018-11-26T05:06:01.118Z,28.27
2018-11-26T05:08:29.083Z,30.03
2018-11-26T05:10:57.012Z,28.87
2018-11-26T05:13:25.208Z,31.30
2018-11-26T05:15:53.254Z,28.80
2018-11-26T05:18:21.176Z,31.97
2018-11-26T05:20:52.694Z,30.43
2018-11-26T05:23:20.676Z,28.97
2018-11-26T05:25:48.639Z,31.17
2018-11-26T05:28:16.563Z,29.77
2018-11-26T05:30:44.536Z,31.80
2018-11-26T05:33:12.484Z,30.83
2018-11-26T05:35:40.404Z,34.67
2018-11-26T05:38:08.382Z,39.97
2018-11-26T05:40:36.917Z,31.90
2018-11-26T05:43:05.197Z,33.97
2018-11-26T05:45:33.141Z,32.10
2018-11-26T05:48:01.134Z,32.10
2018-11-26T05:50:32.365Z,33.07
2018-11-26T05:53:00.293Z,34.17
2018-11-26T05:55:28.224Z,32.60
2018-11-26T05:57:56.238Z,30.63
2018-11-26T06:00:33.060Z,34.20
2018-11-26T06:03:00.982Z,32.53
2018-11-26T06:05:28.912Z,35.20
2018-11-26T06:10:31.557Z,30.53
2018-11-26T06:12:59.593Z,34.33
2018-11-26T06:15:27.536Z,35.33
2018-11-26T06:17:55.511Z,36.97
2018-11-26T06:20:23.475Z,40.00
2018-11-26T06:22:51.495Z,36.20
2018-11-26T06:25:20.442Z,35.80
2018-11-26T06:27:48.513Z,37.53
2018-11-26T06:30:17.572Z,38.63
2018-11-26T06:35:21.321Z,34.30
2018-11-26T06:37:49.302Z,37.23
2018-11-26T06:40:17.373Z,43.73
2018-11-26T06:42:45.479Z,37.50
2018-11-26T06:45:16.659Z,35.83
2018-11-26T06:47:44.643Z,33.53
2018-11-26T06:50:14.587Z,33.93
2018-11-26T06:52:42.549Z,40.10
2018-11-26T06:55:11.912Z,34.53
2018-11-26T06:57:39.955Z,37.77
2018-11-26T07:00:11.661Z,34.83
2018-11-26T07:02:39.823Z,34.07
2018-11-26T07:05:10.784Z,38.37
2018-11-26T07:07:38.847Z,37.87
2018-11-26T07:10:08.045Z,36.00
2018-11-26T07:12:36.119Z,36.07
2018-11-26T07:15:05.320Z,38.03
2018-11-26T07:17:33.278Z,40.20
2018-11-26T07:20:01.347Z,41.77
2018-11-26T07:22:29.537Z,38.10
2018-11-26T07:24:57.469Z,36.27
2018-11-26T07:27:25.515Z,39.53
2018-11-26T07:29:53.572Z,35.50
2018-11-26T07:32:21.559Z,35.37
2018-11-26T07:34:49.576Z,34.50
2018-11-26T07:37:20.876Z,40.70
2018-11-26T07:39:48.857Z,34.73
2018-11-26T07:42:17.071Z,39.97
2018-11-26T07:44:45.024Z,35.67
2018-11-26T07:47:13.003Z,37.03
2018-11-26T07:49:40.942Z,32.97
2018-11-26T07:52:08.882Z,40.97
2018-11-26T07:54:36.870Z,38.07
2018-11-26T07:57:05.090Z,36.13
2018-11-26T07:59:33.088Z,35.30
2018-11-26T08:02:01.059Z,41.07
2018-11-26T08:04:29.068Z,35.03
2018-11-26T08:06:57.118Z,33.53
2018-11-26T08:09:25.083Z,34.50
2018-11-26T08:11:53.040Z,37.57
2018-11-26T08:14:20.969Z,35.53
2018-11-26T08:16:48.913Z,34.37
2018-11-26T08:19:16.871Z,34.60
2018-11-26T08:21:44.809Z,30.37
2018-11-26T08:24:12.740Z,34.17
2018-11-26T08:26:40.701Z,30.03
2018-11-26T08:29:08.663Z,28.53
2018-11-26T08:31:36.604Z,29.67
2018-11-26T08:34:04.889Z,31.70
2018-11-26T08:36:33.763Z,32.47
2018-11-26T08:39:07.356Z,29.57
2018-11-26T08:41:36.737Z,27.83
2018-11-26T08:44:10.309Z,32.60
2018-11-26T08:46:43.941Z,29.00
2018-11-26T08:49:14.273Z,31.20
2018-11-26T08:51:42.200Z,25.40
2018-11-26T08:56:43.403Z,28.90
2018-11-26T08:59:11.369Z,25.37
2018-11-26T09:01:42.438Z,27.20
2018-11-26T09:04:10.691Z,25.60
2018-11-26T09:06:38.706Z,31.57
2018-11-26T09:09:12.891Z,26.20
2018-11-26T09:11:40.820Z,25.63
2018-11-26T09:14:08.808Z,26.43
2018-11-26T09:16:36.768Z,24.57
2018-11-26T09:19:08.547Z,24.13
2018-11-26T09:21:36.487Z,27.63
2018-11-26T09:24:04.553Z,22.60
2018-11-26T09:26:32.538Z,28.13
2018-11-26T09:29:00.477Z,26.37
2018-11-26T09:31:28.431Z,25.80
2018-11-26T09:33:56.408Z,25.83
2018-11-26T09:36:24.352Z,22.63
2018-11-26T09:38:52.364Z,28.93
2018-11-26T09:41:20.335Z,23.33
2018-11-26T09:43:48.297Z,25.07
2018-11-26T09:46:16.285Z,26.80
2018-11-26T09:48:44.214Z,26.70
2018-11-26T09:51:14.375Z,24.40
2018-11-26T09:53:40.197Z,24.43
2018-11-26T09:56:08.153Z,24.47
2018-11-26T09:58:36.084Z,25.43
2018-11-26T10:01:04.349Z,23.00
2018-11-26T10:03:32.283Z,23.00
2018-11-26T10:06:00.219Z,24.53
2018-11-26T10:08:28.177Z,23.80
2018-11-26T10:10:56.096Z,22.80
2018-11-26T10:13:24.156Z,21.87
2018-11-26T10:15:52.139Z,25.47
2018-11-26T10:18:20.099Z,23.97
2018-11-26T10:20:48.043Z,23.03
2018-11-26T10:23:16.003Z,24.20
2018-11-26T10:25:43.935Z,20.93
2018-11-26T10:28:11.990Z,21.27
2018-11-26T10:30:39.957Z,22.00
2018-11-26T10:33:14.451Z,22.43
2018-11-26T10:35:35.939Z,21.00
2018-11-26T10:38:03.961Z,23.70
2018-11-26T10:40:31.895Z,21.10
2018-11-26T10:42:59.874Z,23.30
2018-11-26T10:45:27.846Z,20.73
2018-11-26T10:47:55.790Z,21.83
2018-11-26T10:50:25.248Z,21.03
2018-11-26T10:52:57.371Z,20.83
2018-11-26T10:55:27.134Z,19.30
2018-11-26T10:57:55.070Z,18.03
2018-11-26T11:00:28.591Z,19.80
2018-11-26T11:02:56.515Z,20.77
2018-11-26T11:05:24.466Z,20.37
2018-11-26T11:07:52.431Z,21.03
2018-11-26T11:10:23.371Z,20.33
2018-11-26T11:12:51.335Z,18.73
2018-11-26T11:15:19.312Z,25.00
2018-11-26T11:17:47.283Z,22.13
2018-11-26T11:20:17.054Z,25.13
2018-11-26T11:22:45.108Z,22.57
2018-11-26T11:25:14.064Z,21.00
2018-11-26T11:27:42.144Z,18.87
2018-11-26T11:30:15.210Z,23.83
2018-11-26T11:32:43.521Z,20.10
2018-11-26T11:35:12.365Z,19.10
2018-11-26T11:37:40.846Z,16.70
2018-11-26T11:40:11.410Z,17.77
2018-11-26T11:42:39.459Z,21.13
2018-11-26T11:45:09.066Z,20.73
2018-11-26T11:47:37.018Z,20.70
2018-11-26T11:50:07.395Z,16.83
2018-11-26T11:52:35.318Z,18.33
2018-11-26T11:55:03.420Z,21.13
2018-11-26T11:57:31.400Z,23.03
2018-11-26T12:00:00.261Z,17.27
2018-11-26T12:02:28.248Z,19.53
2018-11-26T12:04:56.319Z,19.70
2018-11-26T12:07:24.309Z,21.97
2018-11-26T12:09:52.283Z,17.90
2018-11-26T12:12:20.285Z,15.83
2018-11-26T12:14:48.253Z,18.00
2018-11-26T12:17:16.220Z,20.27
2018-11-26T12:19:44.185Z,18.23
2018-11-26T12:22:12.111Z,16.43
2018-11-26T12:24:40.216Z,17.03
2018-11-26T12:27:08.190Z,15.87
2018-11-26T12:29:36.141Z,17.73
2018-11-26T12:32:04.093Z,19.20
2018-11-26T12:34:32.301Z,19.43
2018-11-26T12:37:00.281Z,17.90
2018-11-26T12:39:28.240Z,15.67
2018-11-26T12:41:56.270Z,31.23
2018-11-26T12:44:24.856Z,24.67
2018-11-26T12:46:53.016Z,16.87
2018-11-26T12:49:21.003Z,18.90
2018-11-26T12:51:48.977Z,16.40
2018-11-26T12:54:16.933Z,16.70
2018-11-26T12:56:44.930Z,22.87
2018-11-26T12:59:12.977Z,18.20
2018-11-26T13:01:40.929Z,21.20
2018-11-26T13:04:09.025Z,20.23
2018-11-26T13:06:36.995Z,22.03
2018-11-26T13:09:07.315Z,21.20
2018-11-26T13:11:35.317Z,21.53
2018-11-26T13:14:03.271Z,24.17
2018-11-26T13:16:31.288Z,24.03
2018-11-26T13:18:59.301Z,24.63
2018-11-26T13:21:27.241Z,22.40
2018-11-26T13:23:55.229Z,23.43
2018-11-26T13:26:23.498Z,25.10
2018-11-26T13:28:51.422Z,25.03
2018-11-26T13:31:19.354Z,28.43
2018-11-26T13:33:47.320Z,26.67
2018-11-26T13:36:15.295Z,25.80
2018-11-26T13:38:43.330Z,22.43
2018-11-26T13:41:11.536Z,22.83
2018-11-26T13:43:39.643Z,22.03
2018-11-26T13:46:07.695Z,26.90
2018-11-26T13:48:35.817Z,24.20
2018-11-26T13:51:03.837Z,28.77
2018-11-26T13:53:32.004Z,24.63
2018-11-26T13:56:00.077Z,25.33
2018-11-26T13:58:28.045Z,24.33
2018-11-26T14:00:56.013Z,27.73
2018-11-26T14:03:24.074Z,28.43
2018-11-26T14:05:52.001Z,25.60
2018-11-26T14:08:20.030Z,25.83
2018-11-26T14:10:48.010Z,23.20
2018-11-26T14:13:16.515Z,24.00
2018-11-26T14:15:44.525Z,22.83
2018-11-26T14:18:12.610Z,23.03
2018-11-26T14:20:40.537Z,25.03
2018-11-26T14:23:08.567Z,19.30
2018-11-26T14:25:36.570Z,23.90
2018-11-26T14:28:04.624Z,20.97
2018-11-26T14:30:32.550Z,24.20
2018-11-26T14:33:00.612Z,21.97
2018-11-26T14:35:28.567Z,22.87
2018-11-26T14:37:57.714Z,22.83
2018-11-26T14:40:29.777Z,24.60
2018-11-26T14:42:57.730Z,22.03
2018-11-26T14:45:25.660Z,22.10
2018-11-26T14:47:53.674Z,23.47
2018-11-26T14:50:21.633Z,19.10
2018-11-26T14:52:50.167Z,20.67
2018-11-26T14:55:28.609Z,27.97
2018-11-26T14:57:56.674Z,28.63
2018-11-26T15:00:24.626Z,24.17
2018-11-26T15:02:52.877Z,21.27
2018-11-26T15:05:20.877Z,33.17
2018-11-26T15:07:48.798Z,30.17
2018-11-26T15:10:19.078Z,56.70
2018-11-26T15:12:47.151Z,36.17
2018-11-26T15:15:19.370Z,26.20
2018-11-26T15:17:47.430Z,32.73
2018-11-26T15:20:21.748Z,28.70
2018-11-26T15:22:50.417Z,23.37
2018-11-26T15:25:20.556Z,22.60
2018-11-26T15:27:48.624Z,22.87
2018-11-26T15:30:18.847Z,24.17
2018-11-26T15:32:46.941Z,21.50
2018-11-26T15:35:16.127Z,23.70
2018-11-26T15:37:44.288Z,20.33
2018-11-26T15:40:13.623Z,19.13
2018-11-26T15:42:41.615Z,20.17
2018-11-26T15:45:12.741Z,19.17
2018-11-26T15:47:40.697Z,19.60
2018-11-26T15:50:09.301Z,20.47
2018-11-26T15:52:37.278Z,18.27
2018-11-26T15:55:06.972Z,19.93
2018-11-26T15:57:34.937Z,18.20
2018-11-26T16:00:02.886Z,18.73
2018-11-26T16:05:04.683Z,18.80
2018-11-26T16:07:32.764Z,16.27
2018-11-26T16:10:01.028Z,15.97
2018-11-26T16:12:28.963Z,16.93
2018-11-26T16:14:56.902Z,19.00
2018-11-26T16:17:24.968Z,19.47
2018-11-26T16:19:53.079Z,16.17
2018-11-26T16:22:21.084Z,17.50
2018-11-26T16:24:49.162Z,15.20
2018-11-26T16:27:17.142Z,20.47
2018-11-26T16:29:45.207Z,19.07
2018-11-26T16:32:13.495Z,16.67
2018-11-26T16:34:42.569Z,17.43
2018-11-26T16:37:10.541Z,17.83
2018-11-26T16:39:38.818Z,18.07
2018-11-26T16:42:06.754Z,19.83
2018-11-26T16:44:34.704Z,16.53
2018-11-26T16:47:06.570Z,15.13
2018-11-26T16:49:34.545Z,18.83
2018-11-26T16:52:02.466Z,14.37
2018-11-26T16:54:30.445Z,20.27
2018-11-26T16:56:58.437Z,15.83
2018-11-26T16:59:26.465Z,15.37
2018-11-26T17:01:54.606Z,14.23
2018-11-26T17:04:22.715Z,16.10
2018-11-26T17:06:50.762Z,13.40
2018-11-26T17:09:18.830Z,17.20
2018-11-26T17:11:46.817Z,15.00
2018-11-26T17:14:14.762Z,14.10
2018-11-26T17:16:42.869Z,15.73
2018-11-26T17:19:11.036Z,13.70
2018-11-26T17:21:38.978Z,16.77
2018-11-26T17:24:06.986Z,16.50
2018-11-26T17:26:34.925Z,15.00
2018-11-26T17:29:02.934Z,14.27
2018-11-26T17:31:30.894Z,14.07
2018-11-26T17:33:58.873Z,17.90
2018-11-26T17:36:26.939Z,13.77
2018-11-26T17:38:55.013Z,17.53
2018-11-26T17:41:22.949Z,12.07
2018-11-26T17:43:51.254Z,13.47
2018-11-26T17:46:19.203Z,12.80
2018-11-26T17:48:47.121Z,13.33
2018-11-26T17:51:15.161Z,13.37
2018-11-26T17:53:43.085Z,12.53
2018-11-26T17:56:11.101Z,13.03
2018-11-26T17:58:39.032Z,12.27
2018-11-26T18:01:11.657Z,11.63
2018-11-26T18:03:39.714Z,15.53
2018-11-26T18:06:08.482Z,10.77
2018-11-26T18:08:36.585Z,12.77
2018-11-26T18:11:04.986Z,14.10
2018-11-26T18:13:32.924Z,12.93
2018-11-26T18:16:00.928Z,11.33
2018-11-26T18:18:28.973Z,13.27
2018-11-26T18:20:56.990Z,16.23
2018-11-26T18:23:25.021Z,14.80
2018-11-26T18:25:54.077Z,11.57
2018-11-26T18:28:22.181Z,10.77
2018-11-26T18:30:51.387Z,11.67
2018-11-26T18:33:19.326Z,13.90
2018-11-26T18:35:47.909Z,13.00
2018-11-26T18:38:16.129Z,15.63
2018-11-26T18:40:45.449Z,13.93
2018-11-26T18:43:13.484Z,13.90
2018-11-26T18:45:42.188Z,21.03
2018-11-26T18:48:11.601Z,14.67
2018-11-26T18:50:39.612Z,15.57
2018-11-26T18:53:08.185Z,17.03
2018-11-26T18:55:37.239Z,15.27
2018-11-26T18:58:05.405Z,16.70
2018-11-26T19:00:35.424Z,17.33
2018-11-26T19:03:03.379Z,14.30
2018-11-26T19:05:31.312Z,15.03
2018-11-26T19:07:59.525Z,15.17
2018-11-26T19:10:31.459Z,16.97
2018-11-26T19:13:03.971Z,15.83
2018-11-26T19:15:36.062Z,11.57
2018-11-26T19:18:13.453Z,15.07
2018-11-26T19:20:41.376Z,11.47
2018-11-26T19:23:09.390Z,14.67
2018-11-26T19:25:37.489Z,15.73
2018-11-26T19:28:05.457Z,13.83
2018-11-26T19:30:33.418Z,15.60
2018-11-26T19:33:01.379Z,16.17
2018-11-26T19:35:29.320Z,16.17
2018-11-26T19:37:57.339Z,21.47
2018-11-26T19:40:25.277Z,18.63
2018-11-26T19:42:53.235Z,19.67
2018-11-26T19:45:21.460Z,20.97
2018-11-26T19:47:50.430Z,19.13
2018-11-26T19:50:19.272Z,22.33
2018-11-26T19:52:48.652Z,25.10
2018-11-26T19:55:18.894Z,17.87
2018-11-26T19:57:46.959Z,23.27
2018-11-26T20:00:16.096Z,19.63
2018-11-26T20:02:45.584Z,22.10
2018-11-26T20:05:16.794Z,21.67
2018-11-26T20:07:44.766Z,22.03
2018-11-26T20:10:12.728Z,23.77
2018-11-26T20:12:40.822Z,21.40
2018-11-26T20:15:11.774Z,22.83
2018-11-26T20:17:39.762Z,23.10
2018-11-26T20:20:08.193Z,20.77
2018-11-26T20:22:36.250Z,23.27
2018-11-26T20:25:06.562Z,22.17
2018-11-26T20:27:34.946Z,22.47
2018-11-26T20:30:02.987Z,24.17
2018-11-26T20:32:30.998Z,24.03
2018-11-26T20:34:58.993Z,22.47
2018-11-26T20:37:26.955Z,23.20
2018-11-26T20:39:54.930Z,22.00
2018-11-26T20:42:23.002Z,22.97
2018-11-26T20:44:50.947Z,22.13
2018-11-26T20:47:18.904Z,28.23
2018-11-26T20:49:46.925Z,23.40
2018-11-26T20:52:14.860Z,21.93
2018-11-26T20:54:42.793Z,26.10
2018-11-26T20:57:10.889Z,22.20
2018-11-26T20:59:39.064Z,22.83
2018-11-26T21:02:07.020Z,23.20
2018-11-26T21:04:34.984Z,20.70
2018-11-26T21:07:03.094Z,19.83
2018-11-26T21:09:31.062Z,22.17
2018-11-26T21:11:59.390Z,24.23
2018-11-26T21:14:27.425Z,21.50
2018-11-26T21:16:55.352Z,20.07
2018-11-26T21:19:23.756Z,21.37
2018-11-26T21:21:51.678Z,22.07
2018-11-26T21:24:19.742Z,25.73
2018-11-26T21:26:48.031Z,22.57
2018-11-26T21:29:16.496Z,24.73
2018-11-26T21:31:44.463Z,21.47
2018-11-26T21:34:12.420Z,20.73
2018-11-26T21:36:40.371Z,19.73
2018-11-26T21:39:10.262Z,20.60
2018-11-26T21:41:38.308Z,21.53
2018-11-26T21:44:06.416Z,19.70
2018-11-26T21:46:34.471Z,18.70
2018-11-26T21:49:02.482Z,17.77
2018-11-26T21:51:31.346Z,20.77
2018-11-26T21:53:59.296Z,21.03
2018-11-26T21:56:27.272Z,19.93
2018-11-26T21:58:55.249Z,20.73
2018-11-26T22:01:23.210Z,18.77
2018-11-26T22:03:51.201Z,17.60
2018-11-26T22:06:19.129Z,20.13
2018-11-26T22:08:47.115Z,20.67
2018-11-26T22:11:15.095Z,20.67
2018-11-26T22:13:43.102Z,20.23
2018-11-26T22:16:11.073Z,17.90
2018-11-26T22:18:39.209Z,17.73
2018-11-26T22:21:07.141Z,17.97
2018-11-26T22:23:35.110Z,16.83
2018-11-26T22:26:03.114Z,20.53
2018-11-26T22:28:31.177Z,18.77
2018-11-26T22:30:59.236Z,23.57
2018-11-26T22:33:27.195Z,19.00
2018-11-26T22:35:55.172Z,19.90
2018-11-26T22:38:23.242Z,18.10
2018-11-26T22:40:51.191Z,18.97
2018-11-26T22:43:19.117Z,19.07
2018-11-26T22:45:47.074Z,21.67
2018-11-26T22:48:15.180Z,18.40
2018-11-26T22:50:44.214Z,18.57
2018-11-26T22:53:12.188Z,18.70
2018-11-26T22:55:40.162Z,20.80
2018-11-26T22:58:09.548Z,17.50
2018-11-26T23:00:45.189Z,17.90
2018-11-26T23:03:14.706Z,17.10
2018-11-26T23:05:42.641Z,20.40
2018-11-26T23:08:10.605Z,18.93
2018-11-26T23:10:38.560Z,18.13
2018-11-26T23:13:07.402Z,20.87
2018-11-26T23:15:35.378Z,19.40
2018-11-26T23:18:03.337Z,20.87
2018-11-26T23:20:31.549Z,19.03
2018-11-26T23:23:03.204Z,20.23
2018-11-26T23:25:31.154Z,19.60
2018-11-26T23:27:59.184Z,19.27
2018-11-26T23:30:28.330Z,19.53
2018-11-26T23:32:58.221Z,17.67
2018-11-26T23:35:26.198Z,20.97
2018-11-26T23:37:54.251Z,20.73
2018-11-26T23:40:22.186Z,23.07
2018-11-26T23:42:50.145Z,21.60
2018-11-26T23:45:19.117Z,20.47
2018-11-26T23:47:47.056Z,20.57
2018-11-26T23:50:15.973Z,20.33
2018-11-26T23:52:44.149Z,20.03
2018-11-26T23:55:16.863Z,18.67
2018-11-26T23:57:44.815Z,19.53
